| time (UTC) | temp F | wind direction | speed MPH | gust MPH | rain 1hr in | rain 24hr in | rain mn in | humidity % | barometer mb |
| 20260509123007 | 47 | 194 | 0.0 | 3.0 | 0.00 | 0.00 | 0.00 | 86 | 1009.4 |
| 20260509121507 | 46 | 196 | 1.0 | 5.0 | 0.00 | 0.00 | 0.00 | 85 | 1009.5 |
| 20260509120115 | 45 | 136 | 1.0 | 4.0 | 0.00 | 0.00 | 0.00 | 84 | 1009.6 |
| 20260509114605 | 44 | 60 | 1.0 | 2.0 | 0.00 | 0.00 | 0.00 | 84 | 1009.8 |
| 20260509113101 | 43 | 60 | 0.0 | 2.0 | 0.00 | 0.00 | 0.00 | 83 | 1009.8 |
| 20260509111606 | 43 | 57 | 1.0 | 5.0 | 0.00 | 0.00 | 0.00 | 81 | 1009.8 |
| 20260509110100 | 43 | 47 | 2.0 | 6.0 | 0.00 | 0.00 | 0.00 | 81 | 1009.9 |
| 20260509104556 | 43 | 45 | 2.0 | 5.0 | 0.00 | 0.00 | 0.00 | 80 | 1009.8 |
| 20260509103104 | 42 | 44 | 1.0 | 4.0 | 0.00 | 0.00 | 0.00 | 80 | 1009.7 |
| 20260509101620 | 42 | 67 | 1.0 | 4.0 | 0.00 | 0.00 | 0.00 | 80 | 1009.9 |
| 20260509100053 | 42 | 55 | 0.0 | 3.0 | 0.00 | 0.00 | 0.00 | 80 | 1009.8 |
| 20260509094559 | 42 | 57 | 2.0 | 4.0 | 0.00 | 0.00 | 0.00 | 79 | 1009.4 |
| 20260509093059 | 42 | 54 | 3.0 | 5.0 | 0.00 | 0.00 | 0.00 | 79 | 1009.4 |
| 20260509091549 | 42 | 57 | 2.0 | 5.0 | 0.00 | 0.00 | 0.00 | 78 | 1009.6 |
| 20260509090057 | 42 | 46 | 3.0 | 5.0 | 0.00 | 0.01 | 0.00 | 78 | 1009.9 |
| 20260509084547 | 42 | 56 | 0.0 | 3.0 | 0.00 | 0.01 | 0.00 | 77 | 1010.3 |
| 20260509083043 | 43 | 55 | 1.0 | 3.0 | 0.00 | 0.01 | 0.00 | 74 | 1010.3 |
| 20260509081545 | 43 | 53 | 2.0 | 3.0 | 0.00 | 0.01 | 0.00 | 72 | 1010.4 |
| 20260509080042 | 44 | 53 | 2.0 | 4.0 | 0.00 | 0.02 | 0.00 | 70 | 1010.5 |
| 20260509074546 | 44 | 62 | 1.0 | 6.0 | 0.00 | 0.02 | 0.00 | 69 | 1010.7 |
| 20260509073045 | 43 | 49 | 1.0 | 3.0 | 0.00 | 0.02 | 0.00 | 71 | 1010.8 |
| 20260509071545 | 43 | 58 | 2.0 | 4.0 | 0.00 | 0.02 | 0.00 | 72 | 1010.6 |
| 20260509070040 | 43 | 97 | 0.0 | 3.0 | 0.00 | 0.05 | 0.00 | 73 | 1010.7 |
| 20260509064542 | 43 | 113 | 0.0 | 2.0 | 0.00 | 0.05 | 0.00 | 73 | 1010.6 |
| 20260509063033 | 43 | 113 | 0.0 | 2.0 | 0.00 | 0.05 | 0.00 | 73 | 1010.9 |
| 20260509061533 | 44 | 113 | 0.0 | 3.0 | 0.00 | 0.05 | 0.00 | 70 | 1010.9 |
| 20260509060036 | 44 | 113 | 0.0 | 3.0 | 0.00 | 0.05 | 0.00 | 71 | 1011.2 |
| 20260509054534 | 43 | 219 | 0.0 | 1.0 | 0.00 | 0.05 | 0.00 | 74 | 1011.3 |
| 20260509053026 | 43 | 219 | 1.0 | 2.0 | 0.00 | 0.05 | 0.00 | 75 | 1011.5 |
| 20260509051523 | 43 | 219 | 0.0 | 2.0 | 0.00 | 0.05 | 0.00 | 76 | 1011.6 |
| 20260509050022 | 43 | 219 | 0.0 | 2.0 | 0.00 | 0.05 | 0.00 | 76 | 1011.7 |
| 20260509044521 | 43 | 219 | 0.0 | 1.0 | 0.00 | 0.05 | 0.00 | 76 | 1011.9 |
| 20260509043020 | 43 | 219 | 0.0 | 2.0 | 0.00 | 0.05 | 0.00 | 76 | 1012.1 |
| 20260509041526 | 43 | 219 | 1.0 | 3.0 | 0.00 | 0.05 | 0.00 | 75 | 1012.0 |
| 20260509040016 | 42 | 219 | 0.0 | 2.0 | 0.00 | 0.05 | 0.05 | 76 | 1012.0 |
| 20260509034515 | 42 | 219 | 0.0 | 2.0 | 0.00 | 0.05 | 0.05 | 76 | 1012.0 |
| 20260509033015 | 42 | 219 | 0.0 | 2.0 | 0.00 | 0.05 | 0.05 | 76 | 1012.1 |
| 20260509031514 | 43 | 219 | 0.0 | 2.0 | 0.00 | 0.05 | 0.05 | 75 | 1012.0 |
| 20260509030014 | 43 | 219 | 0.0 | 2.0 | 0.00 | 0.05 | 0.05 | 74 | 1012.1 |
| 20260509024513 | 43 | 219 | 0.0 | 3.0 | 0.00 | 0.05 | 0.05 | 72 | 1012.3 |
| 20260509023012 | 44 | 121 | 0.0 | 2.0 | 0.00 | 0.05 | 0.05 | 70 | 1012.3 |
| 20260509021512 | 45 | 121 | 0.0 | 1.0 | 0.00 | 0.05 | 0.05 | 68 | 1012.3 |
| 20260509020022 | 45 | 121 | 0.0 | 1.0 | 0.00 | 0.05 | 0.05 | 67 | 1012.4 |
| 20260509014516 | 46 | 121 | 0.0 | 2.0 | 0.00 | 0.05 | 0.05 | 64 | 1012.3 |
| 20260509013018 | 46 | 121 | 0.0 | 0.0 | 0.00 | 0.05 | 0.05 | 62 | 1012.0 |
| 20260509011509 | 48 | 121 | 0.0 | 0.0 | 0.00 | 0.05 | 0.05 | 59 | 1011.9 |
| 20260509010008 | 48 | 121 | 0.0 | 1.0 | 0.00 | 0.05 | 0.05 | 58 | 1011.7 |
| 20260509004515 | 48 | 121 | 1.0 | 2.0 | 0.00 | 0.05 | 0.05 | 58 | 1011.5 |
| 20260509003008 | 49 | 121 | 1.0 | 2.0 | 0.00 | 0.05 | 0.05 | 57 | 1011.4 |
| 20260509001506 | 50 | 121 | 0.0 | 2.0 | 0.00 | 0.05 | 0.05 | 54 | 1011.2 |
| 20260509000006 | 51 | 121 | 0.0 | 0.0 | 0.00 | 0.05 | 0.05 | 52 | 1011.2 |
| 20260508234505 | 53 | 121 | 0.0 | 1.0 | 0.00 | 0.05 | 0.05 | 51 | 1011.1 |
| 20260508233004 | 54 | 121 | 0.0 | 0.0 | 0.00 | 0.05 | 0.05 | 50 | 1011.0 |
| 20260508231503 | 54 | 121 | 0.0 | 2.0 | 0.00 | 0.05 | 0.05 | 55 | 1011.0 |
| 20260508230003 | 54 | 46 | 1.0 | 5.0 | 0.00 | 0.05 | 0.05 | 51 | 1011.0 |
| 20260508224502 | 55 | 312 | 3.0 | 6.0 | 0.00 | 0.05 | 0.05 | 47 | 1011.0 |
| 20260508223100 | 55 | 213 | 2.0 | 4.0 | 0.00 | 0.05 | 0.05 | 46 | 1011.2 |
| 20260508223003 | 55 | 191 | 1.0 | 4.0 | 0.00 | 0.05 | 0.05 | 46 | 1011.1 |
| 20260508221556 | 55 | 307 | 1.0 | 4.0 | 0.00 | 0.05 | 0.05 | 49 | 1011.1 |
| 20260508220055 | 54 | 290 | 2.0 | 7.0 | 0.00 | 0.05 | 0.05 | 50 | 1011.3 |
| 20260508214554 | 54 | 265 | 2.0 | 7.0 | 0.00 | 0.05 | 0.05 | 49 | 1011.5 |
| 20260508213052 | 54 | 308 | 1.0 | 4.0 | 0.00 | 0.05 | 0.05 | 53 | 1011.4 |
| 20260508211552 | 52 | 268 | 0.0 | 4.0 | 0.00 | 0.05 | 0.05 | 55 | 1011.4 |
| 20260508210049 | 52 | 251 | 3.0 | 7.0 | 0.00 | 0.05 | 0.05 | 55 | 1011.5 |
| 20260508204553 | 53 | 207 | 4.0 | 10.0 | 0.00 | 0.05 | 0.05 | 55 | 1011.7 |
| 20260508203049 | 53 | 215 | 6.0 | 12.0 | 0.00 | 0.05 | 0.05 | 57 | 1011.7 |
| 20260508201548 | 53 | 262 | 7.0 | 14.0 | 0.00 | 0.05 | 0.05 | 55 | 1012.4 |
| 20260508200104 | 53 | 265 | 6.0 | 14.0 | 0.00 | 0.05 | 0.05 | 59 | 1011.9 |
| 20260508194544 | 52 | 273 | 6.0 | 12.0 | 0.00 | 0.05 | 0.05 | 61 | 1012.0 |
| 20260508193055 | 51 | 273 | 3.0 | 9.0 | 0.00 | 0.05 | 0.05 | 65 | 1012.1 |
| 20260508191540 | 51 | 250 | 6.0 | 14.0 | 0.00 | 0.05 | 0.05 | 63 | 1012.1 |
| 20260508190038 | 50 | 242 | 3.0 | 11.0 | 0.00 | 0.05 | 0.05 | 67 | 1012.0 |
| 20260508184536 | 50 | 203 | 4.0 | 9.0 | 0.00 | 0.05 | 0.05 | 68 | 1012.3 |
| 20260508183033 | 49 | 244 | 3.0 | 9.0 | 0.00 | 0.05 | 0.05 | 72 | 1012.5 |
| 20260508181540 | 48 | 274 | 4.0 | 9.0 | 0.00 | 0.05 | 0.05 | 72 | 1012.7 |
| 20260508180033 | 48 | 308 | 2.0 | 7.0 | 0.00 | 0.05 | 0.05 | 74 | 1012.6 |
| 20260508174528 | 47 | 223 | 3.0 | 9.0 | 0.00 | 0.05 | 0.05 | 73 | 1012.7 |
| 20260508173027 | 47 | 249 | 4.0 | 11.0 | 0.00 | 0.05 | 0.05 | 73 | 1012.8 |
| 20260508171525 | 47 | 249 | 6.0 | 11.0 | 0.00 | 0.05 | 0.05 | 75 | 1012.8 |
| 20260508170024 | 46 | 253 | 7.0 | 11.0 | 0.00 | 0.05 | 0.05 | 76 | 1013.0 |
| 20260508164522 | 46 | 239 | 6.0 | 9.0 | 0.00 | 0.05 | 0.05 | 77 | 1013.1 |
| 20260508163024 | 45 | 244 | 5.0 | 13.0 | 0.00 | 0.05 | 0.05 | 77 | 1013.0 |
| 20260508161520 | 45 | 213 | 4.0 | 9.0 | 0.00 | 0.05 | 0.05 | 77 | 1013.1 |
| 20260508160018 | 44 | 282 | 5.0 | 10.0 | 0.00 | 0.05 | 0.05 | 78 | 1013.0 |
| 20260508154538 | 44 | 248 | 4.0 | 9.0 | 0.00 | 0.05 | 0.05 | 84 | 1012.9 |
| 20260508153015 | 43 | 271 | 6.0 | 9.0 | 0.00 | 0.05 | 0.05 | 85 | 1013.0 |
| 20260508151515 | 42 | 248 | 6.0 | 9.0 | 0.00 | 0.05 | 0.05 | 90 | 1013.1 |
| 20260508150013 | 41 | 227 | 4.0 | 9.0 | 0.00 | 0.05 | 0.05 | 93 | 1013.2 |
| 20260508144512 | 40 | 202 | 5.0 | 10.0 | 0.00 | 0.05 | 0.05 | 91 | 1013.0 |
| 20260508143010 | 40 | 249 | 7.0 | 13.0 | 0.00 | 0.05 | 0.05 | 90 | 1013.3 |
| 20260508141509 | 41 | 212 | 4.0 | 11.0 | 0.00 | 0.05 | 0.05 | 89 | 1013.1 |
| 20260508140006 | 42 | 255 | 3.0 | 8.0 | 0.00 | 0.05 | 0.05 | 90 | 1012.9 |
| 20260508134511 | 42 | 227 | 6.0 | 11.0 | 0.00 | 0.05 | 0.05 | 91 | 1012.7 |
| 20260508133006 | 42 | 279 | 4.0 | 9.0 | 0.00 | 0.05 | 0.05 | 92 | 1012.7 |
| 20260508131502 | 42 | 264 | 4.0 | 8.0 | 0.00 | 0.05 | 0.05 | 91 | 1012.7 |
| 20260508130001 | 42 | 296 | 3.0 | 8.0 | 0.00 | 0.05 | 0.05 | 92 | 1012.6 |
| 20260508124604 | 42 | 265 | 4.0 | 7.0 | 0.00 | 0.05 | 0.05 | 92 | 1012.4 |